createdAt,value
2023-02-19T00:00:10.890Z,52.60
2023-02-19T00:10:12.165Z,52.84
2023-02-19T00:20:13.441Z,52.42
2023-02-19T00:30:14.666Z,52.09
2023-02-19T00:40:15.943Z,52.38
2023-02-19T00:50:17.178Z,52.54
2023-02-19T01:00:18.527Z,51.71
2023-02-19T01:10:19.804Z,51.69
2023-02-19T01:20:21.092Z,51.92
2023-02-19T01:30:22.387Z,51.59
2023-02-19T01:40:23.675Z,51.57
2023-02-19T01:50:24.902Z,51.39
2023-02-19T02:00:26.228Z,51.41
2023-02-19T02:10:27.561Z,51.51
2023-02-19T02:20:28.882Z,51.31
2023-02-19T02:30:30.267Z,51.34
2023-02-19T02:40:31.575Z,51.39
2023-02-19T02:50:32.840Z,51.00
2023-02-19T03:00:34.095Z,51.06
2023-02-19T03:10:35.366Z,50.58
2023-02-19T03:20:36.610Z,50.58
2023-02-19T03:30:37.917Z,50.63
2023-02-19T03:40:39.295Z,50.55
2023-02-19T03:50:40.592Z,50.56
2023-02-19T04:00:41.836Z,50.30
2023-02-19T04:10:43.089Z,50.31
2023-02-19T04:20:44.350Z,50.10
2023-02-19T04:30:45.611Z,50.02
2023-02-19T04:40:46.836Z,50.08
2023-02-19T04:50:48.090Z,49.74
2023-02-19T05:00:49.340Z,49.59
2023-02-19T05:10:50.598Z,49.35
2023-02-19T05:20:51.874Z,49.29
2023-02-19T05:30:53.147Z,49.12
2023-02-19T05:40:54.434Z,49.25
2023-02-19T05:50:55.661Z,49.01
2023-02-19T06:00:56.967Z,48.47
2023-02-19T06:10:58.232Z,48.40
2023-02-19T06:20:59.557Z,48.15
2023-02-19T06:41:29.572Z,47.88
2023-02-19T06:51:30.860Z,47.61
2023-02-19T07:01:32.105Z,47.72
2023-02-19T07:11:33.333Z,47.80
2023-02-19T07:21:34.622Z,47.68
2023-02-19T07:31:36.216Z,48.00
2023-02-19T07:41:37.564Z,48.08
2023-02-19T07:51:38.871Z,48.12
2023-02-19T08:01:40.404Z,48.33
2023-02-19T08:11:41.666Z,48.33
2023-02-19T08:21:43.066Z,48.36
2023-02-19T08:31:44.656Z,48.50
2023-02-19T08:41:46.096Z,48.84
2023-02-19T08:51:47.683Z,49.02
2023-02-19T09:01:49.057Z,49.15
2023-02-19T09:11:50.451Z,49.62
2023-02-19T09:21:51.998Z,49.72
2023-02-19T09:31:53.416Z,50.05
2023-02-19T09:41:54.936Z,50.36
2023-02-19T09:51:56.458Z,50.69
2023-02-19T10:01:58.015Z,50.94
2023-02-19T10:11:59.261Z,51.55
2023-02-19T10:22:00.642Z,51.48
2023-02-19T10:32:02.217Z,51.95
2023-02-19T10:42:03.602Z,51.99
2023-02-19T10:52:04.971Z,51.74
2023-02-19T11:02:06.465Z,51.80
2023-02-19T11:12:09.218Z,51.42
2023-02-19T11:22:22.707Z,51.87
2023-02-19T11:32:31.986Z,51.69
2023-02-19T11:42:43.132Z,52.35
2023-02-19T11:52:45.478Z,53.68
2023-02-19T12:13:15.936Z,53.71
2023-02-19T12:23:17.251Z,53.59
2023-02-19T12:33:26.101Z,52.85
2023-02-19T12:43:29.201Z,52.91
2023-02-19T12:53:42.096Z,52.46
2023-02-19T13:03:47.378Z,51.74
2023-02-19T13:13:52.041Z,51.34
2023-02-19T13:24:01.353Z,51.20
2023-02-19T13:34:12.081Z,50.46
2023-02-19T13:44:14.510Z,50.14
2023-02-19T13:54:23.211Z,49.59
2023-02-19T14:04:34.155Z,49.30
2023-02-19T14:14:42.701Z,48.73
2023-02-19T14:24:54.464Z,48.53
2023-02-19T14:34:59.781Z,48.03
2023-02-19T14:45:07.247Z,48.00
2023-02-19T14:55:13.391Z,47.91
2023-02-19T15:15:43.576Z,47.34
2023-02-19T15:25:44.855Z,47.31
2023-02-19T15:35:52.953Z,47.17
2023-02-19T15:45:55.001Z,47.37
2023-02-19T16:06:25.343Z,46.88
2023-02-19T16:16:26.800Z,46.78
2023-02-19T16:26:28.406Z,46.62
2023-02-19T16:36:29.636Z,46.32
2023-02-19T16:46:30.865Z,46.14
2023-02-19T16:56:32.222Z,46.05
2023-02-19T17:06:35.074Z,45.33
2023-02-19T17:16:36.474Z,45.54
2023-02-19T17:26:37.739Z,45.92
2023-02-19T17:36:39.026Z,45.90
2023-02-19T17:46:40.299Z,46.16
2023-02-19T17:56:41.697Z,45.89
2023-02-19T18:06:43.270Z,45.79
2023-02-19T18:16:44.597Z,45.79
2023-02-19T18:26:46.167Z,45.23
2023-02-19T18:36:47.428Z,45.24
2023-02-19T18:46:48.790Z,45.40
2023-02-19T18:56:50.041Z,44.60
2023-02-19T19:06:51.320Z,44.18
2023-02-19T19:16:52.994Z,44.07
2023-02-19T19:26:54.483Z,44.04
2023-02-19T19:36:56.321Z,43.91
2023-02-19T19:46:57.887Z,43.68
2023-02-19T19:56:59.130Z,43.69
2023-02-19T20:07:00.379Z,43.06
2023-02-19T20:17:01.634Z,42.88
2023-02-19T20:37:28.344Z,43.24
2023-02-19T20:47:29.793Z,42.25
2023-02-19T20:57:31.347Z,42.32
2023-02-19T21:07:32.612Z,42.15
2023-02-19T21:17:33.900Z,42.10
2023-02-19T21:27:35.165Z,40.86
2023-02-19T21:37:36.786Z,40.84
2023-02-19T21:47:38.168Z,41.63
2023-02-19T21:57:39.445Z,40.14
2023-02-19T22:07:40.824Z,39.89
2023-02-19T22:17:42.060Z,39.83
2023-02-19T22:27:43.319Z,39.77
2023-02-19T22:37:44.698Z,39.51
2023-02-19T22:47:45.972Z,39.85
2023-02-19T22:57:47.384Z,40.42
2023-02-19T23:07:48.884Z,39.41
2023-02-19T23:17:50.164Z,39.64
2023-02-19T23:27:51.418Z,39.36
2023-02-19T23:37:52.674Z,39.76
2023-02-19T23:47:53.932Z,38.90
2023-02-19T23:57:55.169Z,40.22
